createdAt,value
2023-05-18T00:02:08.239Z,2.07
2023-05-18T00:04:38.774Z,2.93
2023-05-18T00:07:09.287Z,2.20
2023-05-18T00:09:39.264Z,1.63
2023-05-18T00:12:09.361Z,2.27
2023-05-18T00:14:37.979Z,2.77
2023-05-18T00:17:06.920Z,2.10
2023-05-18T00:19:36.656Z,1.30
2023-05-18T00:22:18.821Z,3.13
2023-05-18T00:24:48.056Z,1.30
2023-05-18T00:27:16.778Z,1.23
2023-05-18T00:29:45.498Z,1.00
2023-05-18T00:32:14.112Z,1.97
2023-05-18T00:34:42.656Z,0.90
2023-05-18T00:37:12.577Z,0.70
2023-05-18T00:39:41.254Z,1.00
2023-05-18T00:42:09.840Z,1.43
2023-05-18T00:44:53.729Z,0.80
2023-05-18T00:47:22.266Z,0.80
2023-05-18T00:49:51.081Z,0.80
2023-05-18T00:52:22.018Z,0.90
2023-05-18T00:54:51.572Z,1.20
2023-05-18T00:57:20.286Z,1.73
2023-05-18T00:59:50.235Z,1.30
2023-05-18T01:02:20.483Z,0.90
2023-05-18T01:04:49.477Z,0.70
2023-05-18T01:07:44.014Z,1.23
2023-05-18T01:10:15.711Z,0.83
2023-05-18T01:12:51.992Z,2.07
2023-05-18T01:15:26.405Z,0.60
2023-05-18T01:18:14.863Z,0.53
2023-05-18T01:20:48.818Z,0.60
2023-05-18T01:24:03.709Z,0.60
2023-05-18T01:26:39.886Z,0.70
2023-05-18T01:29:14.144Z,1.13
2023-05-18T01:31:43.163Z,0.70
2023-05-18T01:34:11.770Z,1.17
2023-05-18T01:37:06.148Z,0.50
2023-05-18T01:39:34.835Z,1.00
2023-05-18T01:42:12.852Z,0.60
2023-05-18T01:44:49.116Z,0.50
2023-05-18T01:47:19.525Z,0.73
2023-05-18T01:49:57.809Z,1.23
2023-05-18T01:52:44.298Z,0.77
2023-05-18T01:55:16.415Z,0.70
2023-05-18T01:57:48.718Z,0.97
2023-05-18T02:00:24.558Z,0.70
2023-05-18T02:02:53.324Z,1.73
2023-05-18T02:05:22.098Z,0.53
2023-05-18T02:07:50.636Z,0.50
2023-05-18T02:10:19.499Z,1.37
2023-05-18T02:12:52.854Z,1.20
2023-05-18T02:15:21.597Z,1.50
2023-05-18T02:17:50.183Z,1.70
2023-05-18T02:20:19.254Z,1.63
2023-05-18T02:22:47.804Z,2.03
2023-05-18T02:25:17.244Z,3.10
2023-05-18T02:27:45.843Z,1.90
2023-05-18T02:30:16.655Z,1.73
2023-05-18T02:33:00.706Z,1.70
2023-05-18T02:35:29.670Z,2.00
2023-05-18T02:37:58.498Z,2.60
2023-05-18T02:40:27.236Z,2.23
2023-05-18T02:42:55.919Z,2.20
2023-05-18T02:45:25.885Z,2.40
2023-05-18T02:48:15.986Z,2.20
2023-05-18T02:50:46.972Z,2.20
2023-05-18T02:53:15.686Z,3.37
2023-05-18T02:55:46.724Z,2.20
2023-05-18T02:58:15.712Z,3.20
2023-05-18T03:00:46.819Z,2.33
2023-05-18T03:03:42.432Z,4.03
2023-05-18T03:06:11.349Z,2.83
2023-05-18T03:08:41.184Z,2.83
2023-05-18T03:11:15.670Z,3.03
2023-05-18T03:13:44.374Z,3.23
2023-05-18T03:16:14.451Z,2.50
2023-05-18T03:18:43.565Z,2.57
2023-05-18T03:21:13.793Z,2.50
2023-05-18T03:23:42.705Z,2.90
2023-05-18T03:26:12.457Z,3.53
2023-05-18T03:28:41.176Z,3.57
2023-05-18T03:31:09.833Z,3.60
2023-05-18T03:33:39.928Z,3.10
2023-05-18T03:36:09.491Z,2.90
2023-05-18T03:38:37.936Z,3.47
2023-05-18T03:41:06.840Z,2.93
2023-05-18T03:43:35.350Z,3.13
2023-05-18T03:46:03.999Z,4.03
2023-05-18T03:48:32.634Z,3.97
2023-05-18T03:51:02.604Z,3.73
2023-05-18T03:53:31.139Z,3.23
2023-05-18T03:55:59.698Z,3.40
2023-05-18T03:58:29.354Z,3.47
2023-05-18T04:00:58.102Z,3.57
2023-05-18T04:03:27.190Z,3.40
2023-05-18T04:05:56.252Z,3.53
2023-05-18T04:08:26.292Z,3.83
2023-05-18T04:10:55.163Z,3.30
2023-05-18T04:13:23.889Z,4.00
2023-05-18T04:15:52.722Z,4.67
2023-05-18T04:18:21.773Z,3.60
2023-05-18T04:20:50.757Z,3.83
2023-05-18T04:23:20.082Z,3.20
2023-05-18T04:25:50.649Z,4.50
2023-05-18T04:28:19.344Z,3.97
2023-05-18T04:30:47.968Z,3.77
2023-05-18T04:33:16.855Z,3.30
2023-05-18T04:35:45.745Z,3.50
2023-05-18T04:38:15.107Z,3.37
2023-05-18T04:40:43.694Z,3.80
2023-05-18T04:43:13.803Z,3.87
2023-05-18T04:45:42.828Z,3.10
2023-05-18T04:48:11.432Z,2.90
2023-05-18T04:50:40.165Z,3.50
2023-05-18T04:53:12.463Z,3.20
2023-05-18T04:55:42.852Z,2.97
2023-05-18T04:58:11.376Z,3.00
2023-05-18T05:00:41.357Z,3.83
2023-05-18T05:03:10.389Z,3.07
2023-05-18T05:06:08.075Z,3.13
2023-05-18T05:08:37.137Z,3.13
2023-05-18T05:11:06.127Z,2.97
2023-05-18T05:13:39.709Z,3.07
2023-05-18T05:16:10.259Z,5.47
2023-05-18T05:18:38.838Z,5.10
2023-05-18T05:21:07.684Z,3.60
2023-05-18T05:23:36.338Z,5.13
2023-05-18T05:26:05.499Z,4.33
2023-05-18T05:28:33.959Z,3.70
2023-05-18T05:31:02.630Z,3.40
2023-05-18T05:33:32.661Z,3.80
2023-05-18T05:36:01.213Z,2.70
2023-05-18T05:38:29.764Z,3.00
2023-05-18T05:40:58.381Z,3.50
2023-05-18T05:43:26.994Z,3.73
2023-05-18T05:45:56.463Z,3.27
2023-05-18T05:48:25.053Z,3.53
2023-05-18T05:50:55.020Z,3.17
2023-05-18T05:53:23.668Z,3.07
2023-05-18T05:55:52.267Z,3.17
2023-05-18T05:58:20.857Z,3.30
2023-05-18T06:00:52.446Z,3.33
2023-05-18T06:03:21.397Z,3.63
2023-05-18T06:05:50.036Z,3.90
2023-05-18T06:08:20.011Z,4.57
2023-05-18T06:10:48.580Z,4.60
2023-05-18T06:13:17.534Z,3.80
2023-05-18T06:15:46.076Z,6.83
2023-05-18T06:18:14.767Z,4.57
2023-05-18T06:20:43.464Z,5.00
2023-05-18T06:23:12.055Z,4.97
2023-05-18T06:25:42.028Z,7.20
2023-05-18T06:28:10.687Z,5.87
2023-05-18T06:30:39.226Z,5.73
2023-05-18T06:33:08.539Z,5.03
2023-05-18T06:35:37.125Z,6.40
2023-05-18T06:38:05.764Z,5.70
2023-05-18T06:40:34.292Z,6.37
2023-05-18T06:43:04.299Z,6.23
2023-05-18T06:45:36.155Z,8.70
2023-05-18T06:48:33.281Z,5.93
2023-05-18T06:51:01.969Z,7.03
2023-05-18T06:53:32.060Z,5.50
2023-05-18T06:56:00.742Z,5.23
2023-05-18T06:58:57.793Z,5.93
2023-05-18T07:01:28.242Z,11.40
2023-05-18T07:03:56.859Z,10.07
2023-05-18T07:06:25.499Z,7.50
2023-05-18T07:08:54.024Z,6.77
2023-05-18T07:11:23.063Z,5.87
2023-05-18T07:13:51.552Z,6.97
2023-05-18T07:16:21.601Z,5.50
2023-05-18T07:18:50.186Z,9.37
2023-05-18T07:21:18.774Z,22.13
2023-05-18T07:23:47.301Z,18.33
2023-05-18T07:26:16.178Z,14.23
2023-05-18T07:28:44.882Z,70.73
2023-05-18T07:31:22.253Z,34.70
2023-05-18T07:33:50.963Z,15.47
2023-05-18T07:36:19.600Z,10.50
2023-05-18T07:38:48.218Z,15.43
2023-05-18T07:41:16.804Z,9.63
2023-05-18T07:43:45.445Z,7.90
2023-05-18T07:46:14.063Z,14.17
2023-05-18T07:48:45.153Z,25.13
2023-05-18T07:51:13.851Z,28.60
2023-05-18T07:53:43.012Z,9.80
2023-05-18T07:56:11.581Z,9.07
2023-05-18T07:58:40.101Z,7.17
2023-05-18T08:01:08.642Z,8.93
2023-05-18T08:03:37.418Z,8.60
2023-05-18T08:06:07.813Z,8.33
2023-05-18T08:08:38.052Z,8.33
2023-05-18T08:11:32.224Z,6.80
2023-05-18T08:14:00.955Z,8.73
2023-05-18T08:16:29.517Z,11.27
2023-05-18T08:18:58.087Z,9.13
2023-05-18T08:21:28.580Z,15.37
2023-05-18T08:23:57.270Z,10.27
2023-05-18T08:26:27.134Z,21.47
2023-05-18T08:28:56.134Z,14.03
2023-05-18T08:31:50.368Z,14.70
2023-05-18T08:34:19.052Z,9.57
2023-05-18T08:36:48.963Z,7.90
2023-05-18T08:39:17.524Z,21.17
2023-05-18T08:41:57.051Z,10.47
2023-05-18T08:44:35.343Z,9.87
2023-05-18T08:47:09.951Z,15.77
2023-05-18T08:49:41.797Z,10.30
2023-05-18T08:52:19.216Z,17.90
2023-05-18T17:17:01.681Z,5.37
2023-05-18T17:19:56.551Z,5.87
2023-05-18T17:22:24.980Z,5.73
2023-05-18T17:24:53.462Z,4.40
2023-05-18T17:27:47.440Z,4.37
2023-05-18T17:30:16.331Z,4.30
2023-05-18T17:32:45.675Z,4.43
2023-05-18T17:35:15.695Z,4.93
2023-05-18T17:37:44.255Z,3.67
2023-05-18T17:40:14.201Z,4.70
2023-05-18T17:42:42.835Z,6.00
2023-05-18T17:45:12.330Z,5.07
2023-05-18T17:47:41.773Z,4.20
2023-05-18T17:50:11.569Z,4.17
2023-05-18T17:52:41.602Z,6.57
2023-05-18T17:55:10.560Z,8.63
2023-05-18T17:57:45.027Z,8.67
2023-05-18T18:00:15.855Z,9.50
2023-05-18T18:02:44.370Z,9.57
2023-05-18T18:05:13.111Z,10.60
2023-05-18T18:08:09.087Z,8.73
2023-05-18T18:10:37.511Z,7.30
2023-05-18T18:13:06.062Z,7.33
2023-05-18T18:15:34.611Z,7.20
2023-05-18T18:18:03.187Z,7.37
2023-05-18T18:20:36.526Z,8.07
2023-05-18T18:23:05.643Z,6.57
2023-05-18T18:25:35.713Z,8.90
2023-05-18T18:28:04.329Z,8.63
2023-05-18T18:30:33.079Z,7.23
2023-05-18T18:33:01.810Z,7.07
2023-05-18T18:35:30.387Z,10.30
2023-05-18T18:37:58.899Z,6.67
2023-05-18T18:40:27.394Z,7.37
2023-05-18T18:42:57.216Z,7.20
2023-05-18T18:45:26.950Z,8.90
2023-05-18T18:47:55.425Z,11.27
2023-05-18T18:50:24.240Z,6.90
2023-05-18T18:52:52.791Z,9.23
2023-05-18T18:55:22.864Z,9.50
2023-05-18T18:57:53.007Z,8.40
2023-05-18T19:00:22.941Z,9.57
2023-05-18T19:02:51.554Z,11.47
2023-05-18T19:05:23.514Z,12.80
2023-05-18T19:07:55.611Z,10.70
2023-05-18T19:10:25.494Z,14.93
2023-05-18T19:12:54.294Z,14.83
2023-05-18T19:15:24.079Z,9.63
2023-05-18T19:17:53.909Z,8.03
2023-05-18T19:20:24.020Z,9.57
2023-05-18T19:22:53.568Z,8.90
2023-05-18T19:25:22.552Z,7.33
2023-05-18T19:27:51.939Z,7.37
2023-05-18T19:30:21.554Z,8.17
2023-05-18T19:32:53.274Z,10.23
2023-05-18T19:35:23.693Z,9.83
2023-05-18T19:37:53.625Z,6.43
2023-05-18T19:40:22.742Z,7.63
2023-05-18T19:42:51.342Z,8.33
2023-05-18T19:45:19.859Z,7.80
2023-05-18T19:47:48.495Z,8.73
2023-05-18T19:50:18.434Z,7.30
2023-05-18T19:52:49.520Z,6.53
2023-05-18T19:55:18.454Z,6.90
2023-05-18T19:57:46.877Z,6.70
2023-05-18T20:00:16.143Z,8.57
2023-05-18T20:02:44.730Z,8.73
2023-05-18T20:05:18.181Z,6.23
2023-05-18T20:07:48.042Z,7.23
2023-05-18T20:10:16.556Z,8.30
2023-05-18T20:12:45.160Z,6.50
2023-05-18T20:15:13.729Z,5.17
2023-05-18T20:17:42.809Z,5.73
2023-05-18T20:20:12.316Z,6.83
2023-05-18T20:22:41.814Z,5.83
2023-05-18T20:25:12.127Z,6.90
2023-05-18T20:27:40.659Z,4.80
2023-05-18T20:30:10.464Z,11.27
2023-05-18T20:32:39.072Z,15.13
2023-05-18T20:35:08.329Z,19.57
2023-05-18T20:37:37.746Z,20.90
2023-05-18T20:40:09.480Z,56.60
2023-05-18T20:42:40.864Z,15.30
2023-05-18T20:45:10.859Z,23.30
2023-05-18T20:47:41.897Z,20.23
2023-05-18T20:50:11.319Z,13.23
2023-05-18T20:52:39.785Z,11.13
2023-05-18T20:55:09.606Z,8.57
2023-05-18T20:57:40.110Z,6.43
2023-05-18T21:00:10.573Z,4.93
2023-05-18T21:02:39.661Z,6.40
2023-05-18T21:05:09.089Z,4.53
2023-05-18T21:07:40.118Z,5.43
2023-05-18T21:10:10.611Z,5.17
2023-05-18T21:12:40.520Z,5.03
2023-05-18T21:15:10.352Z,4.57
2023-05-18T21:17:38.952Z,3.77
2023-05-18T21:20:09.964Z,4.57
2023-05-18T21:22:38.433Z,3.40
2023-05-18T21:25:08.113Z,5.10
2023-05-18T21:27:37.593Z,4.03
2023-05-18T21:30:09.869Z,3.87
2023-05-18T21:32:38.489Z,5.07
2023-05-18T21:35:08.048Z,4.43
2023-05-18T21:37:36.593Z,4.40
2023-05-18T21:40:06.056Z,3.07
2023-05-18T21:42:34.662Z,3.87
2023-05-18T21:45:03.792Z,4.00
2023-05-18T21:47:33.707Z,3.60
2023-05-18T21:50:02.217Z,5.17
2023-05-18T21:52:30.782Z,3.13
2023-05-18T21:54:59.229Z,7.60
2023-05-18T21:57:27.746Z,4.87
2023-05-18T21:59:56.185Z,4.90
2023-05-18T22:02:24.752Z,6.67
2023-05-18T22:04:54.803Z,7.10
2023-05-18T22:07:23.262Z,6.53
2023-05-18T22:09:53.355Z,4.73
2023-05-18T22:12:23.540Z,4.73
2023-05-18T22:14:52.051Z,4.13
2023-05-18T22:17:20.598Z,6.03
2023-05-18T22:19:50.734Z,6.43
2023-05-18T22:22:30.376Z,4.67
2023-05-18T22:24:59.566Z,4.10
2023-05-18T22:27:28.188Z,3.73
2023-05-18T22:29:57.384Z,5.70
2023-05-18T22:32:26.193Z,4.67
2023-05-18T22:34:55.865Z,6.73
2023-05-18T22:37:25.683Z,6.43
2023-05-18T22:39:54.341Z,7.77
2023-05-18T22:42:22.875Z,8.20
2023-05-18T22:44:51.474Z,5.50
2023-05-18T22:47:23.663Z,6.50
2023-05-18T22:49:52.440Z,6.50
2023-05-18T22:52:21.314Z,8.03
2023-05-18T22:54:51.491Z,5.50
2023-05-18T22:57:20.011Z,5.40
2023-05-18T22:59:48.504Z,5.30
2023-05-18T23:02:17.050Z,6.17
2023-05-18T23:04:45.691Z,4.53
2023-05-18T23:07:14.230Z,12.70
2023-05-18T23:09:42.748Z,13.30
2023-05-18T23:12:12.895Z,8.17
2023-05-18T23:14:41.386Z,9.23
2023-05-18T23:17:11.456Z,7.37
2023-05-18T23:19:40.951Z,5.73
2023-05-18T23:22:09.423Z,5.83
2023-05-18T23:24:38.014Z,5.43
2023-05-18T23:27:07.160Z,5.60
2023-05-18T23:29:37.164Z,8.97
2023-05-18T23:32:06.716Z,7.23
2023-05-18T23:34:36.371Z,7.10
2023-05-18T23:37:10.659Z,8.67
2023-05-18T23:39:42.088Z,10.37
2023-05-18T23:42:13.284Z,9.50
2023-05-18T23:44:44.333Z,7.73
2023-05-18T23:47:14.843Z,9.83
2023-05-18T23:49:44.140Z,10.43
2023-05-18T23:52:14.911Z,10.47
2023-05-18T23:54:45.641Z,11.17
2023-05-18T23:57:14.820Z,8.83
2023-05-18T23:59:45.960Z,9.87
